createdAt,value
2019-05-29T00:00:26.687Z,82
2019-05-29T00:01:26.688Z,82
2019-05-29T00:02:26.731Z,82
2019-05-29T00:03:26.832Z,83
2019-05-29T00:04:29.147Z,83
2019-05-29T00:05:26.901Z,83
2019-05-29T00:06:26.946Z,83
2019-05-29T00:07:26.994Z,83
2019-05-29T00:08:27.068Z,83
2019-05-29T00:09:27.058Z,82
2019-05-29T00:10:27.095Z,82
2019-05-29T00:11:27.077Z,83
2019-05-29T00:12:27.130Z,83
2019-05-29T00:13:27.172Z,83
2019-05-29T00:14:27.814Z,84
2019-05-29T00:15:27.253Z,85
2019-05-29T00:16:27.290Z,85
2019-05-29T00:17:27.332Z,85
2019-05-29T00:18:27.438Z,85
2019-05-29T00:19:27.464Z,85
2019-05-29T00:20:27.474Z,86
2019-05-29T00:21:27.501Z,86
2019-05-29T00:22:30.024Z,87
2019-05-29T00:23:27.594Z,88
2019-05-29T00:24:27.673Z,88
2019-05-29T00:25:27.694Z,88
2019-05-29T00:26:27.712Z,88
2019-05-29T00:27:27.751Z,89
2019-05-29T00:28:27.751Z,89
2019-05-29T00:29:27.821Z,88
2019-05-29T00:30:27.834Z,89
2019-05-29T00:31:27.835Z,89
2019-05-29T00:32:27.888Z,90
2019-05-29T00:33:31.040Z,90
2019-05-29T00:34:27.903Z,90
2019-05-29T00:35:27.953Z,91
2019-05-29T00:36:27.980Z,91
2019-05-29T00:37:28.031Z,91
2019-05-29T00:38:28.062Z,91
2019-05-29T00:39:28.090Z,91
2019-05-29T00:40:28.107Z,91
2019-05-29T00:41:28.140Z,91
2019-05-29T00:42:28.199Z,90
2019-05-29T00:43:28.189Z,90
2019-05-29T00:44:34.118Z,90
2019-05-29T00:45:28.231Z,90
2019-05-29T00:46:28.280Z,90
2019-05-29T00:47:28.314Z,90
2019-05-29T00:48:28.285Z,90
2019-05-29T00:49:28.317Z,90
2019-05-29T00:50:28.367Z,90
2019-05-29T00:51:28.392Z,90
2019-05-29T00:52:28.408Z,90
2019-05-29T00:53:28.457Z,90
2019-05-29T00:54:28.415Z,90
2019-05-29T00:55:28.424Z,91
2019-05-29T00:56:28.468Z,90
2019-05-29T00:57:28.466Z,90
2019-05-29T00:58:28.481Z,90
2019-05-29T00:59:28.490Z,90
2019-05-29T01:00:28.500Z,90
2019-05-29T01:01:28.533Z,90
2019-05-29T01:02:28.543Z,90
2019-05-29T01:03:28.635Z,90
2019-05-29T01:04:28.536Z,90
2019-05-29T01:05:28.577Z,90
2019-05-29T01:06:28.551Z,91
2019-05-29T01:07:28.572Z,91
2019-05-29T01:08:28.574Z,91
2019-05-29T01:09:28.573Z,91
2019-05-29T01:10:28.610Z,91
2019-05-29T01:11:28.604Z,91
2019-05-29T01:12:28.627Z,90
2019-05-29T01:13:28.720Z,90
2019-05-29T01:14:28.970Z,91
2019-05-29T01:15:28.868Z,91
2019-05-29T01:16:28.819Z,91
2019-05-29T01:17:28.861Z,91
2019-05-29T01:18:28.930Z,91
2019-05-29T01:19:29.004Z,91
2019-05-29T01:20:29.078Z,91
2019-05-29T01:21:29.149Z,91
2019-05-29T01:22:29.097Z,91
2019-05-29T01:23:29.093Z,91
2019-05-29T01:24:29.160Z,91
2019-05-29T01:25:29.278Z,91
2019-05-29T01:26:29.290Z,91
2019-05-29T01:27:29.338Z,91
2019-05-29T01:28:29.420Z,91
2019-05-29T01:29:29.430Z,91
2019-05-29T01:30:29.502Z,92
2019-05-29T01:31:29.533Z,92
2019-05-29T01:32:29.596Z,92
2019-05-29T01:33:29.660Z,91
2019-05-29T01:34:29.746Z,91
2019-05-29T01:35:29.810Z,91
2019-05-29T01:36:29.779Z,91
2019-05-29T01:37:29.808Z,91
2019-05-29T01:38:29.875Z,91
2019-05-29T01:39:29.940Z,91
2019-05-29T01:40:30.975Z,91
2019-05-29T01:41:30.019Z,91
2019-05-29T01:42:30.078Z,91
2019-05-29T01:43:30.146Z,91
2019-05-29T01:44:30.225Z,91
2019-05-29T01:45:30.256Z,91
2019-05-29T01:46:30.306Z,90
2019-05-29T01:47:30.296Z,89
2019-05-29T01:48:30.367Z,89
2019-05-29T01:49:30.432Z,89
2019-05-29T01:50:30.468Z,89
2019-05-29T01:51:30.555Z,88
2019-05-29T01:52:30.581Z,88
2019-05-29T01:53:30.593Z,88
2019-05-29T01:54:30.666Z,89
2019-05-29T01:55:31.378Z,89
2019-05-29T01:56:30.707Z,89
2019-05-29T01:57:30.664Z,90
2019-05-29T01:58:30.734Z,89
2019-05-29T01:59:30.747Z,89
2019-05-29T02:00:30.819Z,89
2019-05-29T02:01:30.879Z,90
2019-05-29T02:02:30.888Z,90
2019-05-29T02:03:30.933Z,90
2019-05-29T02:04:30.929Z,90
2019-05-29T02:05:31.000Z,90
2019-05-29T02:06:31.023Z,90
2019-05-29T02:07:31.004Z,90
2019-05-29T02:08:31.006Z,90
2019-05-29T02:09:31.048Z,90
2019-05-29T02:10:31.040Z,90
2019-05-29T02:11:32.245Z,90
2019-05-29T02:12:31.124Z,90
2019-05-29T02:13:31.115Z,90
2019-05-29T02:14:31.219Z,90
2019-05-29T02:15:33.600Z,90
2019-05-29T02:16:31.249Z,89
2019-05-29T02:17:31.443Z,89
2019-05-29T02:18:31.325Z,89
2019-05-29T02:19:31.409Z,89
2019-05-29T02:20:31.411Z,89
2019-05-29T02:21:31.437Z,88
2019-05-29T02:22:31.486Z,88
2019-05-29T02:23:31.496Z,88
2019-05-29T02:24:31.574Z,88
2019-05-29T02:25:31.596Z,88
2019-05-29T02:26:31.630Z,87
2019-05-29T02:27:31.652Z,88
2019-05-29T02:28:31.632Z,88
2019-05-29T02:29:31.673Z,87
2019-05-29T02:30:31.724Z,87
2019-05-29T02:31:31.752Z,87
2019-05-29T02:32:31.814Z,87
2019-05-29T02:33:31.826Z,87
2019-05-29T02:34:31.872Z,88
2019-05-29T02:35:31.917Z,88
2019-05-29T02:36:31.893Z,89
2019-05-29T02:37:31.912Z,89
2019-05-29T02:38:31.979Z,89
2019-05-29T02:39:31.982Z,88
2019-05-29T02:40:31.989Z,87
2019-05-29T02:41:32.009Z,88
2019-05-29T02:42:32.007Z,88
2019-05-29T02:43:32.100Z,88
2019-05-29T02:44:32.113Z,88
2019-05-29T02:45:52.440Z,88
2019-05-29T02:46:32.135Z,88
2019-05-29T02:47:32.166Z,88
2019-05-29T02:48:32.194Z,88
2019-05-29T02:49:32.223Z,88
2019-05-29T02:50:32.257Z,88
2019-05-29T02:51:32.253Z,88
2019-05-29T02:52:32.253Z,87
2019-05-29T02:53:32.258Z,87
2019-05-29T02:54:32.528Z,87
2019-05-29T02:55:32.340Z,87
2019-05-29T02:56:32.306Z,87
2019-05-29T02:57:32.303Z,87
2019-05-29T02:58:32.331Z,87
2019-05-29T02:59:32.420Z,87
2019-05-29T03:00:32.408Z,86
2019-05-29T03:01:32.351Z,86
2019-05-29T03:02:32.357Z,86
2019-05-29T03:03:39.084Z,86
2019-05-29T03:04:32.912Z,87
2019-05-29T03:05:32.407Z,87
2019-05-29T03:06:32.531Z,87
2019-05-29T03:07:32.708Z,87
2019-05-29T03:08:34.234Z,87
2019-05-29T03:09:32.796Z,87
2019-05-29T03:10:33.071Z,88
2019-05-29T03:11:33.413Z,88
2019-05-29T03:12:33.650Z,88
2019-05-29T03:13:33.606Z,87
2019-05-29T03:14:34.572Z,86
2019-05-29T03:15:33.704Z,86
2019-05-29T03:16:34.621Z,87
2019-05-29T03:17:33.772Z,87
2019-05-29T03:18:34.694Z,87
2019-05-29T03:19:34.512Z,87
2019-05-29T03:20:34.414Z,87
2019-05-29T03:21:34.575Z,87
2019-05-29T03:22:33.777Z,87
2019-05-29T03:23:33.858Z,87
2019-05-29T03:24:34.904Z,87
2019-05-29T03:25:34.887Z,87
2019-05-29T03:26:34.839Z,88
2019-05-29T03:27:33.935Z,88
2019-05-29T03:28:34.840Z,88
2019-05-29T03:29:34.263Z,88
2019-05-29T03:30:38.456Z,88
2019-05-29T03:31:39.234Z,88
2019-05-29T03:32:41.640Z,88
2019-05-29T03:33:40.434Z,88
2019-05-29T03:34:39.007Z,88
2019-05-29T03:35:42.911Z,88
2019-05-29T03:36:39.212Z,88
2019-05-29T03:37:34.432Z,88
2019-05-29T03:38:34.868Z,88
2019-05-29T03:39:34.560Z,88
2019-05-29T03:40:35.182Z,89
2019-05-29T03:41:34.844Z,88
2019-05-29T03:42:34.421Z,88
2019-05-29T03:43:35.851Z,89
2019-05-29T03:44:35.371Z,88
2019-05-29T03:45:35.657Z,88
2019-05-29T03:46:40.593Z,88
2019-05-29T03:47:35.043Z,88
2019-05-29T03:48:34.487Z,88
2019-05-29T03:49:35.148Z,88
2019-05-29T03:50:34.870Z,89
2019-05-29T03:51:34.963Z,89
2019-05-29T03:52:34.778Z,89
2019-05-29T03:53:36.074Z,89
2019-05-29T03:54:35.449Z,89
2019-05-29T03:55:35.796Z,89
2019-05-29T03:56:34.767Z,89
2019-05-29T03:57:35.800Z,89
2019-05-29T03:58:35.053Z,89
2019-05-29T03:59:35.319Z,90
2019-05-29T04:00:41.107Z,90
2019-05-29T04:01:35.462Z,90
2019-05-29T04:02:35.487Z,90
2019-05-29T04:03:35.545Z,90
2019-05-29T04:04:36.096Z,90
2019-05-29T04:05:35.448Z,89
2019-05-29T04:06:37.504Z,89
2019-05-29T04:07:35.607Z,89
2019-05-29T04:08:35.668Z,89
2019-05-29T04:09:35.335Z,89
2019-05-29T04:10:37.322Z,89
2019-05-29T04:11:35.527Z,89
2019-05-29T04:12:35.463Z,90
2019-05-29T04:13:36.133Z,90
2019-05-29T04:14:35.634Z,90
2019-05-29T04:15:36.414Z,90
2019-05-29T04:16:51.996Z,90
2019-05-29T04:17:35.432Z,90
2019-05-29T04:18:35.912Z,90
2019-05-29T04:19:36.806Z,90
2019-05-29T04:20:36.019Z,90
2019-05-29T04:21:36.231Z,90
2019-05-29T04:22:36.842Z,89
2019-05-29T04:23:36.186Z,89
2019-05-29T04:24:35.963Z,89
2019-05-29T04:25:39.534Z,88
2019-05-29T04:26:36.156Z,87
2019-05-29T04:27:35.948Z,87
2019-05-29T04:28:36.849Z,87
2019-05-29T04:29:36.085Z,88
2019-05-29T04:30:36.461Z,88
2019-05-29T04:31:36.514Z,88
2019-05-29T04:32:36.567Z,87
2019-05-29T04:33:36.635Z,87
2019-05-29T04:34:36.226Z,87
2019-05-29T04:35:36.782Z,87
2019-05-29T04:36:36.825Z,87
2019-05-29T04:37:36.871Z,87
2019-05-29T04:38:36.196Z,86
2019-05-29T04:39:36.919Z,86
2019-05-29T04:40:37.199Z,86
2019-05-29T04:41:37.028Z,86
2019-05-29T04:42:37.345Z,85
2019-05-29T04:43:37.377Z,84
2019-05-29T04:44:36.322Z,84
2019-05-29T04:45:38.051Z,84
2019-05-29T04:46:36.332Z,85
2019-05-29T04:47:37.195Z,84
2019-05-29T04:48:36.248Z,84
2019-05-29T04:49:36.216Z,84
2019-05-29T04:50:37.658Z,85
2019-05-29T04:51:37.153Z,85
2019-05-29T04:52:37.625Z,85
2019-05-29T04:53:37.491Z,86
2019-05-29T04:54:37.396Z,85
2019-05-29T04:55:36.872Z,84
2019-05-29T04:56:36.898Z,85
2019-05-29T04:57:37.084Z,84
2019-05-29T04:58:36.929Z,83
2019-05-29T04:59:35.706Z,83
2019-05-29T05:00:35.647Z,82
2019-05-29T05:01:35.717Z,82
2019-05-29T05:02:35.785Z,83
2019-05-29T05:03:35.828Z,81
2019-05-29T05:04:37.249Z,82
2019-05-29T05:05:35.969Z,83
2019-05-29T05:06:35.980Z,83
2019-05-29T05:07:35.997Z,84
2019-05-29T05:08:36.101Z,83
2019-05-29T05:09:36.107Z,82
2019-05-29T05:10:36.186Z,82
2019-05-29T05:11:36.201Z,82
2019-05-29T05:12:36.211Z,82
2019-05-29T05:13:36.274Z,82
2019-05-29T05:14:36.321Z,82
2019-05-29T05:15:36.388Z,83
2019-05-29T05:16:36.444Z,83
2019-05-29T05:17:36.452Z,83
2019-05-29T05:18:40.020Z,82
2019-05-29T05:19:36.549Z,82
2019-05-29T05:20:36.610Z,82
2019-05-29T05:21:36.657Z,82
2019-05-29T05:22:36.717Z,82
2019-05-29T05:23:36.686Z,83
2019-05-29T05:24:36.759Z,85
2019-05-29T05:25:36.800Z,85
2019-05-29T05:26:36.951Z,86
2019-05-29T05:27:36.919Z,85
2019-05-29T05:28:36.973Z,84
2019-05-29T05:29:37.019Z,84
2019-05-29T05:30:37.100Z,84
2019-05-29T05:31:37.147Z,84
2019-05-29T05:32:37.187Z,85
2019-05-29T05:33:37.249Z,85
2019-05-29T05:34:37.266Z,85
2019-05-29T05:35:37.363Z,85
2019-05-29T05:36:37.346Z,85
2019-05-29T05:37:37.402Z,86
2019-05-29T05:38:37.460Z,86
2019-05-29T05:39:37.519Z,85
2019-05-29T05:40:40.064Z,85
2019-05-29T05:41:37.591Z,85
2019-05-29T05:42:37.655Z,84
2019-05-29T05:43:38.756Z,85
2019-05-29T05:44:37.716Z,85
2019-05-29T05:45:39.110Z,85
2019-05-29T05:46:38.091Z,84
2019-05-29T05:47:49.404Z,85
2019-05-29T05:48:37.863Z,85
2019-05-29T05:49:37.915Z,85
2019-05-29T05:50:37.990Z,85
2019-05-29T05:51:41.058Z,85
2019-05-29T05:52:38.005Z,85
2019-05-29T05:53:38.048Z,85
2019-05-29T05:54:41.531Z,85
2019-05-29T05:55:38.175Z,85
2019-05-29T05:56:38.159Z,85
2019-05-29T05:57:38.173Z,84
2019-05-29T05:58:38.231Z,84
2019-05-29T05:59:38.262Z,84
2019-05-29T06:00:38.364Z,85
2019-05-29T06:01:38.363Z,85
2019-05-29T06:02:38.354Z,85
2019-05-29T06:03:38.401Z,85
2019-05-29T06:04:38.411Z,85
2019-05-29T06:05:38.493Z,84
2019-05-29T06:06:38.493Z,83
2019-05-29T06:07:38.515Z,82
2019-05-29T06:08:38.540Z,82
2019-05-29T06:09:38.571Z,81
2019-05-29T06:10:38.583Z,82
2019-05-29T06:11:38.617Z,82
2019-05-29T06:12:38.797Z,81
2019-05-29T06:13:38.621Z,82
2019-05-29T06:14:38.701Z,83
2019-05-29T06:15:38.696Z,84
2019-05-29T06:16:38.735Z,84
2019-05-29T06:17:38.849Z,84
2019-05-29T06:18:38.830Z,82
2019-05-29T06:19:39.055Z,81
2019-05-29T06:20:39.040Z,82
2019-05-29T06:21:38.861Z,83
2019-05-29T06:22:39.156Z,83
2019-05-29T06:23:38.959Z,83
2019-05-29T06:24:38.921Z,84
2019-05-29T06:25:40.326Z,85
2019-05-29T06:26:39.052Z,84
2019-05-29T06:27:39.254Z,84
2019-05-29T06:28:39.191Z,84
2019-05-29T06:29:39.321Z,85
2019-05-29T06:30:40.841Z,85
2019-05-29T06:31:39.358Z,85
2019-05-29T06:32:39.433Z,85
2019-05-29T06:33:39.446Z,85
2019-05-29T06:34:39.559Z,85
2019-05-29T06:35:39.602Z,85
2019-05-29T06:36:39.594Z,85
2019-05-29T06:37:39.573Z,85
2019-05-29T06:38:40.369Z,85
2019-05-29T06:39:39.635Z,84
2019-05-29T06:40:42.087Z,84
2019-05-29T06:41:40.081Z,84
2019-05-29T06:42:39.824Z,83
2019-05-29T06:43:39.843Z,83
2019-05-29T06:44:39.908Z,84
2019-05-29T06:45:39.946Z,83
2019-05-29T06:46:40.408Z,82
2019-05-29T06:47:40.724Z,81
2019-05-29T06:48:44.496Z,80
2019-05-29T06:49:40.089Z,80
2019-05-29T06:50:39.457Z,80
2019-05-29T06:51:39.394Z,80
2019-05-29T06:52:39.515Z,80
2019-05-29T06:53:39.780Z,79
2019-05-29T06:54:39.956Z,78
2019-05-29T06:55:39.834Z,79
2019-05-29T06:56:39.734Z,80
2019-05-29T06:57:40.228Z,80
2019-05-29T06:58:40.014Z,79
2019-05-29T06:59:40.426Z,79
2019-05-29T07:00:41.023Z,79
2019-05-29T07:01:39.569Z,78
2019-05-29T07:02:40.648Z,79
2019-05-29T07:03:39.759Z,78
2019-05-29T07:04:40.404Z,77
2019-05-29T07:05:39.899Z,77
2019-05-29T07:06:40.675Z,77
2019-05-29T07:07:40.275Z,78
2019-05-29T07:08:44.140Z,75
2019-05-29T07:09:40.931Z,76
2019-05-29T07:10:40.412Z,78
2019-05-29T07:11:41.231Z,77
2019-05-29T07:12:40.364Z,78
2019-05-29T07:13:42.816Z,74
2019-05-29T07:14:40.334Z,75
2019-05-29T07:15:40.730Z,76
2019-05-29T07:16:49.450Z,73
2019-05-29T07:17:40.492Z,74
2019-05-29T07:18:45.442Z,76
2019-05-29T07:19:53.785Z,76
2019-05-29T07:20:40.673Z,75
2019-05-29T07:21:40.870Z,74
2019-05-29T07:22:40.908Z,74
2019-05-29T07:23:41.212Z,75
2019-05-29T07:24:41.140Z,76
2019-05-29T07:25:40.888Z,73
2019-05-29T07:26:41.040Z,72
2019-05-29T07:27:40.824Z,72
2019-05-29T07:29:01.866Z,74
2019-05-29T07:29:41.157Z,75
2019-05-29T07:30:43.882Z,72
2019-05-29T07:31:40.984Z,70
2019-05-29T07:32:42.491Z,71
2019-05-29T07:33:41.102Z,70
2019-05-29T07:34:56.568Z,72
2019-05-29T07:35:41.419Z,75
2019-05-29T07:36:41.906Z,75
2019-05-29T07:37:41.672Z,75
2019-05-29T07:38:45.732Z,75
2019-05-29T07:39:41.523Z,74
2019-05-29T07:40:42.607Z,75
2019-05-29T07:41:41.712Z,72
2019-05-29T07:42:45.724Z,67
2019-05-29T07:43:41.829Z,66
2019-05-29T07:44:42.126Z,64
2019-05-29T07:45:42.157Z,65
2019-05-29T07:46:42.246Z,66
2019-05-29T07:47:42.459Z,65
2019-05-29T07:48:42.557Z,65
2019-05-29T07:49:44.736Z,66
2019-05-29T07:50:42.170Z,67
2019-05-29T07:51:43.294Z,66
2019-05-29T07:52:43.140Z,68
2019-05-29T07:53:42.245Z,67
2019-05-29T07:54:41.997Z,66
2019-05-29T07:55:42.563Z,64
2019-05-29T07:56:42.422Z,64
2019-05-29T07:57:42.756Z,66
2019-05-29T07:58:48.707Z,66
2019-05-29T07:59:42.654Z,66
2019-05-29T08:01:04.657Z,67
2019-05-29T08:01:42.772Z,66
2019-05-29T08:02:43.294Z,69
2019-05-29T08:03:43.447Z,69
2019-05-29T08:04:43.009Z,68
2019-05-29T08:05:46.107Z,66
2019-05-29T08:06:48.142Z,67
2019-05-29T08:07:43.368Z,68
2019-05-29T08:08:43.198Z,67
2019-05-29T08:09:43.588Z,69
2019-05-29T08:10:43.384Z,68
2019-05-29T08:11:43.523Z,68
2019-05-29T08:12:48.295Z,69
2019-05-29T08:13:43.579Z,69
2019-05-29T08:14:43.694Z,66
2019-05-29T08:15:53.825Z,65
2019-05-29T08:16:43.905Z,66
2019-05-29T08:17:43.923Z,68
2019-05-29T08:18:46.046Z,64
2019-05-29T08:19:59.126Z,66
2019-05-29T08:20:43.890Z,66
2019-05-29T08:21:42.794Z,66
2019-05-29T08:22:42.837Z,67
2019-05-29T08:23:42.882Z,65
2019-05-29T08:24:42.863Z,64
2019-05-29T08:25:43.405Z,65
2019-05-29T08:26:43.054Z,65
2019-05-29T08:27:42.938Z,65
2019-05-29T08:28:42.947Z,65
2019-05-29T08:29:42.945Z,66
2019-05-29T08:30:48.076Z,68
2019-05-29T08:31:46.729Z,66
2019-05-29T08:32:43.504Z,66
2019-05-29T08:33:43.014Z,66
2019-05-29T08:34:43.125Z,68
2019-05-29T08:35:43.171Z,67
2019-05-29T08:36:59.670Z,62
2019-05-29T08:37:43.073Z,62
2019-05-29T08:38:44.445Z,63
2019-05-29T08:39:43.380Z,67
2019-05-29T08:40:43.108Z,68
2019-05-29T08:41:47.463Z,64
2019-05-29T08:42:43.258Z,64
2019-05-29T08:43:44.767Z,66
2019-05-29T08:44:43.383Z,68
2019-05-29T08:45:43.447Z,68
2019-05-29T08:46:57.428Z,67
2019-05-29T08:47:43.459Z,66
2019-05-29T08:48:43.670Z,66
2019-05-29T08:49:43.686Z,65
2019-05-29T08:50:43.652Z,65
2019-05-29T08:51:43.866Z,65
2019-05-29T08:52:43.889Z,64
2019-05-29T08:53:44.105Z,61
2019-05-29T08:54:43.941Z,62
2019-05-29T08:55:44.159Z,64
2019-05-29T08:56:44.246Z,63
2019-05-29T08:57:44.200Z,63
2019-05-29T08:58:44.363Z,63
2019-05-29T08:59:44.393Z,62
2019-05-29T09:00:47.117Z,65
2019-05-29T09:01:45.068Z,60
2019-05-29T09:02:44.607Z,63
2019-05-29T09:03:44.843Z,60
2019-05-29T09:04:44.653Z,60
2019-05-29T09:05:44.519Z,61
2019-05-29T09:06:44.675Z,58
2019-05-29T09:07:45.850Z,61
2019-05-29T09:08:46.180Z,59
2019-05-29T09:09:44.860Z,58
2019-05-29T09:10:45.200Z,57
2019-05-29T09:11:45.204Z,62
2019-05-29T09:12:46.808Z,61
2019-05-29T09:13:44.919Z,58
2019-05-29T09:14:44.484Z,57
2019-05-29T09:15:44.537Z,59
2019-05-29T09:16:44.519Z,59
2019-05-29T09:17:44.598Z,60
2019-05-29T09:18:44.651Z,56
2019-05-29T09:19:44.588Z,57
2019-05-29T09:21:01.499Z,58
2019-05-29T09:21:44.673Z,54
2019-05-29T09:22:44.710Z,57
2019-05-29T09:23:44.781Z,56
2019-05-29T09:24:45.767Z,56
2019-05-29T09:25:44.773Z,56
2019-05-29T09:26:46.483Z,52
2019-05-29T09:27:44.901Z,56
2019-05-29T09:28:44.970Z,53
2019-05-29T09:29:44.971Z,52
2019-05-29T09:30:45.012Z,54
2019-05-29T09:31:45.086Z,53
2019-05-29T09:32:50.743Z,53
2019-05-29T09:33:45.121Z,53
2019-05-29T09:34:47.564Z,51
2019-05-29T09:35:45.176Z,51
2019-05-29T09:36:45.275Z,50
2019-05-29T09:37:45.284Z,52
2019-05-29T09:38:45.355Z,52
2019-05-29T09:40:45.614Z,53
2019-05-29T09:41:45.418Z,54
2019-05-29T09:42:45.419Z,54
2019-05-29T09:43:57.992Z,52
2019-05-29T09:44:45.428Z,52
2019-05-29T09:45:45.501Z,52
2019-05-29T09:46:45.458Z,51
2019-05-29T09:47:45.524Z,53
2019-05-29T09:48:49.445Z,54
2019-05-29T09:49:45.548Z,54
2019-05-29T09:50:49.864Z,54
2019-05-29T09:51:45.689Z,54
2019-05-29T09:52:45.683Z,55
2019-05-29T09:53:45.817Z,56
2019-05-29T09:54:45.701Z,54
2019-05-29T09:55:45.656Z,54
2019-05-29T09:56:45.741Z,52
2019-05-29T09:57:45.729Z,52
2019-05-29T09:58:45.734Z,51
2019-05-29T09:59:45.744Z,54
2019-05-29T10:00:45.837Z,56
2019-05-29T10:01:45.804Z,56
2019-05-29T10:02:46.056Z,51
2019-05-29T10:03:45.839Z,54
2019-05-29T10:04:45.835Z,55
2019-05-29T10:05:45.916Z,56
2019-05-29T10:06:45.845Z,56
2019-05-29T10:07:45.914Z,52
2019-05-29T10:08:45.901Z,54
2019-05-29T10:09:45.869Z,55
2019-05-29T10:10:45.929Z,54
2019-05-29T10:11:45.931Z,54
2019-05-29T10:12:45.963Z,52
2019-05-29T10:13:45.926Z,49
2019-05-29T10:14:46.024Z,49
2019-05-29T10:15:45.951Z,51
2019-05-29T10:16:45.945Z,51
2019-05-29T10:17:46.018Z,50
2019-05-29T10:18:45.941Z,51
2019-05-29T10:19:46.229Z,52
2019-05-29T10:20:46.018Z,51
2019-05-29T10:21:46.046Z,54
2019-05-29T10:22:46.184Z,53
2019-05-29T10:23:46.172Z,54
2019-05-29T10:24:46.285Z,53
2019-05-29T10:25:46.415Z,54
2019-05-29T10:26:47.357Z,53
2019-05-29T10:27:46.541Z,54
2019-05-29T10:28:58.813Z,53
2019-05-29T10:29:48.748Z,55
2019-05-29T10:30:48.150Z,55
2019-05-29T10:31:47.630Z,54
2019-05-29T10:32:46.462Z,53
2019-05-29T10:33:46.589Z,54
2019-05-29T10:34:46.669Z,55
2019-05-29T10:35:49.076Z,55
2019-05-29T10:36:49.589Z,54
2019-05-29T10:37:46.777Z,52
2019-05-29T10:38:46.790Z,52
2019-05-29T10:39:46.875Z,54
2019-05-29T10:40:56.314Z,55
2019-05-29T10:41:46.865Z,54
2019-05-29T10:42:47.195Z,53
2019-05-29T10:43:47.139Z,51
2019-05-29T10:44:47.515Z,53
2019-05-29T10:45:47.967Z,53
2019-05-29T10:47:02.481Z,56
2019-05-29T10:47:47.558Z,55
2019-05-29T10:48:49.201Z,52
2019-05-29T10:49:47.612Z,53
2019-05-29T10:50:50.271Z,50
2019-05-29T10:52:00.102Z,50
2019-05-29T10:52:47.877Z,50
2019-05-29T10:53:49.561Z,50
2019-05-29T10:54:48.120Z,48
2019-05-29T10:55:48.566Z,47
2019-05-29T10:56:48.743Z,51
2019-05-29T10:57:48.814Z,48
2019-05-29T10:58:51.938Z,47
2019-05-29T10:59:48.380Z,48
2019-05-29T11:00:49.011Z,46
2019-05-29T11:01:47.590Z,45
2019-05-29T11:02:48.096Z,46
2019-05-29T11:03:47.682Z,46
2019-05-29T11:04:51.889Z,47
2019-05-29T11:05:47.767Z,48
2019-05-29T11:06:48.073Z,48
2019-05-29T11:07:47.878Z,47
2019-05-29T11:08:48.008Z,47
2019-05-29T11:09:48.539Z,46
2019-05-29T11:10:47.982Z,47
2019-05-29T11:11:48.360Z,47
2019-05-29T11:12:48.433Z,45
2019-05-29T11:13:48.605Z,47
2019-05-29T11:14:48.480Z,47
2019-05-29T11:15:48.539Z,47
2019-05-29T11:16:48.989Z,48
2019-05-29T11:17:48.990Z,50
2019-05-29T11:18:49.131Z,46
2019-05-29T11:19:49.187Z,46
2019-05-29T11:20:49.320Z,47
2019-05-29T11:21:49.636Z,47
2019-05-29T11:22:49.461Z,44
2019-05-29T11:23:49.735Z,45
2019-05-29T11:24:49.923Z,47
2019-05-29T11:25:48.410Z,45
2019-05-29T11:26:48.458Z,48
2019-05-29T11:27:48.570Z,44
2019-05-29T11:28:48.530Z,47
2019-05-29T11:29:48.755Z,45
2019-05-29T11:30:48.690Z,46
2019-05-29T11:31:48.600Z,45
2019-05-29T11:32:50.101Z,46
2019-05-29T11:33:48.855Z,48
2019-05-29T11:34:48.952Z,46
2019-05-29T11:36:00.470Z,48
2019-05-29T11:36:49.880Z,45
2019-05-29T11:37:48.760Z,42
2019-05-29T11:38:48.753Z,46
2019-05-29T11:39:48.860Z,43
2019-05-29T11:40:49.231Z,44
2019-05-29T11:41:48.851Z,46
2019-05-29T11:42:48.857Z,47
2019-05-29T11:43:48.895Z,45
2019-05-29T11:44:48.956Z,46
2019-05-29T11:45:48.915Z,43
2019-05-29T11:46:50.118Z,41
2019-05-29T11:47:48.960Z,42
2019-05-29T11:48:48.981Z,42
2019-05-29T11:49:49.041Z,41
2019-05-29T11:50:49.983Z,40
2019-05-29T11:51:49.052Z,42
2019-05-29T11:52:50.176Z,43
2019-05-29T11:53:49.052Z,43
2019-05-29T11:54:52.291Z,42
2019-05-29T11:55:49.152Z,43
2019-05-29T11:56:49.115Z,42
2019-05-29T11:57:49.132Z,44
2019-05-29T11:58:49.136Z,44
2019-05-29T11:59:49.153Z,44
2019-05-29T12:00:49.224Z,44
2019-05-29T12:01:50.779Z,42
2019-05-29T12:02:49.246Z,44
2019-05-29T12:04:12.599Z,43
2019-05-29T12:04:49.202Z,43
2019-05-29T12:05:49.235Z,42
2019-05-29T12:06:49.247Z,44
2019-05-29T12:07:49.324Z,44
2019-05-29T12:08:49.299Z,43
2019-05-29T12:09:49.243Z,44
2019-05-29T12:10:49.222Z,45
2019-05-29T12:11:49.344Z,44
2019-05-29T12:12:49.258Z,45
2019-05-29T12:13:49.343Z,45
2019-05-29T12:15:00.059Z,44
2019-05-29T12:15:49.319Z,45
2019-05-29T12:16:49.360Z,45
2019-05-29T12:17:49.424Z,44
2019-05-29T12:18:49.495Z,45
2019-05-29T12:19:49.506Z,46
2019-05-29T12:20:49.522Z,43
2019-05-29T12:21:49.576Z,44
2019-05-29T12:23:12.397Z,42
2019-05-29T12:23:49.762Z,41
2019-05-29T12:24:49.760Z,40
2019-05-29T12:26:12.362Z,41
2019-05-29T12:26:49.907Z,41
2019-05-29T12:27:49.908Z,42
2019-05-29T12:28:50.690Z,42
2019-05-29T12:29:51.058Z,44
2019-05-29T12:30:50.017Z,44
2019-05-29T12:31:50.059Z,41
2019-05-29T12:32:50.119Z,41
2019-05-29T12:33:50.199Z,42
2019-05-29T12:34:53.357Z,41
2019-05-29T12:35:50.455Z,42
2019-05-29T12:36:50.316Z,41
2019-05-29T12:37:50.386Z,39
2019-05-29T12:38:50.566Z,40
2019-05-29T12:39:50.502Z,40
2019-05-29T12:40:50.569Z,41
2019-05-29T12:41:50.575Z,42
2019-05-29T12:42:50.679Z,40
2019-05-29T12:43:50.754Z,40
2019-05-29T12:44:50.754Z,42
2019-05-29T12:45:50.800Z,39
2019-05-29T12:46:50.816Z,41
2019-05-29T12:47:50.830Z,39
2019-05-29T12:48:50.911Z,40
2019-05-29T12:49:50.942Z,38
2019-05-29T12:50:51.013Z,38
2019-05-29T12:51:51.044Z,41
2019-05-29T12:52:51.088Z,42
2019-05-29T12:53:51.162Z,40
2019-05-29T12:54:53.897Z,38
2019-05-29T12:55:51.261Z,41
2019-05-29T12:56:51.264Z,36
2019-05-29T12:57:51.312Z,38
2019-05-29T12:58:51.592Z,36
2019-05-29T12:59:51.761Z,37
2019-05-29T13:00:51.573Z,39
2019-05-29T13:01:51.537Z,35
2019-05-29T13:02:51.604Z,36
2019-05-29T13:03:51.623Z,36
2019-05-29T13:05:15.887Z,38
2019-05-29T13:05:51.746Z,35
2019-05-29T13:06:51.769Z,36
2019-05-29T13:07:51.833Z,37
2019-05-29T13:08:51.862Z,36
2019-05-29T13:09:51.890Z,35
2019-05-29T13:10:51.991Z,35
2019-05-29T13:11:51.963Z,38
2019-05-29T13:12:52.189Z,37
2019-05-29T13:13:52.068Z,37
2019-05-29T13:14:52.106Z,35
2019-05-29T13:15:52.160Z,38
2019-05-29T13:16:52.182Z,38
2019-05-29T13:17:54.737Z,38
2019-05-29T13:18:52.194Z,38
2019-05-29T13:19:52.297Z,33
2019-05-29T13:20:52.349Z,35
2019-05-29T13:21:52.282Z,38
2019-05-29T13:22:52.324Z,35
2019-05-29T13:23:52.423Z,38
2019-05-29T13:24:52.958Z,36
2019-05-29T13:25:52.476Z,34
2019-05-29T13:26:52.460Z,38
2019-05-29T13:27:52.492Z,35
2019-05-29T13:28:52.574Z,34
2019-05-29T13:29:56.371Z,35
2019-05-29T13:30:52.591Z,36
2019-05-29T13:31:55.606Z,36
2019-05-29T13:32:52.675Z,36
2019-05-29T13:33:52.727Z,37
2019-05-29T13:34:52.721Z,36
2019-05-29T13:35:52.764Z,38
2019-05-29T13:36:52.862Z,37
2019-05-29T13:37:52.842Z,36
2019-05-29T13:38:52.847Z,35
2019-05-29T13:39:52.848Z,36
2019-05-29T13:40:52.962Z,38
2019-05-29T13:41:52.928Z,38
2019-05-29T13:42:52.998Z,37
2019-05-29T13:43:52.964Z,34
2019-05-29T13:44:53.525Z,35
2019-05-29T13:45:52.985Z,35
2019-05-29T13:46:52.999Z,35
2019-05-29T13:47:53.114Z,36
2019-05-29T13:48:53.040Z,35
2019-05-29T13:49:53.103Z,34
2019-05-29T13:50:53.079Z,36
2019-05-29T13:51:53.080Z,34
2019-05-29T13:52:53.198Z,34
2019-05-29T13:54:03.445Z,36
2019-05-29T13:54:53.179Z,36
2019-05-29T13:55:53.183Z,35
2019-05-29T13:56:53.340Z,36
2019-05-29T13:57:53.184Z,36
2019-05-29T13:58:53.220Z,35
2019-05-29T13:59:53.251Z,33
2019-05-29T14:00:53.231Z,34
2019-05-29T14:01:53.266Z,34
2019-05-29T14:02:53.235Z,35
2019-05-29T14:03:53.243Z,34
2019-05-29T14:04:53.328Z,34
2019-05-29T14:05:53.260Z,33
2019-05-29T14:06:53.330Z,34
2019-05-29T14:07:53.266Z,33
2019-05-29T14:08:53.281Z,35
2019-05-29T14:09:53.313Z,33
2019-05-29T14:10:53.285Z,35
2019-05-29T14:11:53.294Z,33
2019-05-29T14:12:53.403Z,32
2019-05-29T14:13:53.310Z,33
2019-05-29T14:14:53.332Z,34
2019-05-29T14:15:53.385Z,35
2019-05-29T14:16:53.525Z,32